sensor_id;sensor_type;location;lat;lon;timestamp;pressure;altitude;pressure_sealevel;temperature;humidity
18533;BME280;9396;51.510;11.934;2023-04-28T00:01:50;100782.97;;;7.90;84.83
18533;BME280;9396;51.510;11.934;2023-04-28T00:04:16;100774.81;;;7.82;85.73
18533;BME280;9396;51.510;11.934;2023-04-28T00:06:43;100769.19;;;7.75;85.69
18533;BME280;9396;51.510;11.934;2023-04-28T00:09:10;100767.75;;;7.71;85.99
18533;BME280;9396;51.510;11.934;2023-04-28T00:11:38;100767.44;;;7.65;86.17
18533;BME280;9396;51.510;11.934;2023-04-28T00:14:05;100760.47;;;7.64;85.41
18533;BME280;9396;51.510;11.934;2023-04-28T00:16:31;100751.16;;;7.69;85.44
18533;BME280;9396;51.510;11.934;2023-04-28T00:18:58;100744.91;;;7.70;85.58
18533;BME280;9396;51.510;11.934;2023-04-28T00:21:25;100748.50;;;7.69;85.69
18533;BME280;9396;51.510;11.934;2023-04-28T00:23:52;100741.81;;;7.65;85.30
18533;BME280;9396;51.510;11.934;2023-04-28T00:26:19;100739.88;;;7.67;85.78
18533;BME280;9396;51.510;11.934;2023-04-28T00:28:47;100740.94;;;7.65;85.39
18533;BME280;9396;51.510;11.934;2023-04-28T00:31:14;100731.72;;;7.59;85.13
18533;BME280;9396;51.510;11.934;2023-04-28T00:33:42;100727.75;;;7.53;84.92
18533;BME280;9396;51.510;11.934;2023-04-28T00:36:09;100730.66;;;7.50;86.28
18533;BME280;9396;51.510;11.934;2023-04-28T00:38:36;100725.09;;;7.53;85.39
18533;BME280;9396;51.510;11.934;2023-04-28T00:41:03;100729.09;;;7.48;85.90
18533;BME280;9396;51.510;11.934;2023-04-28T00:43:30;100723.09;;;7.46;86.36
18533;BME280;9396;51.510;11.934;2023-04-28T00:45:58;100726.47;;;7.37;85.54
18533;BME280;9396;51.510;11.934;2023-04-28T00:48:25;100719.78;;;7.33;85.65
18533;BME280;9396;51.510;11.934;2023-04-28T00:50:54;100715.25;;;7.24;86.52
18533;BME280;9396;51.510;11.934;2023-04-28T00:53:20;100716.91;;;7.25;86.36
18533;BME280;9396;51.510;11.934;2023-04-28T00:55:48;100716.91;;;7.25;86.95
18533;BME280;9396;51.510;11.934;2023-04-28T00:58:18;100708.38;;;7.21;86.40
18533;BME280;9396;51.510;11.934;2023-04-28T01:00:45;100712.13;;;7.19;86.51
18533;BME280;9396;51.510;11.934;2023-04-28T01:03:13;100703.47;;;7.17;86.61
18533;BME280;9396;51.510;11.934;2023-04-28T01:05:40;100703.69;;;7.25;87.10
18533;BME280;9396;51.510;11.934;2023-04-28T01:08:06;100707.50;;;7.32;86.27
18533;BME280;9396;51.510;11.934;2023-04-28T01:10:33;100707.97;;;7.37;87.04
18533;BME280;9396;51.510;11.934;2023-04-28T01:13:00;100696.00;;;7.22;87.00
18533;BME280;9396;51.510;11.934;2023-04-28T01:15:27;100698.50;;;6.92;86.32
18533;BME280;9396;51.510;11.934;2023-04-28T01:17:54;100692.47;;;7.01;85.80
18533;BME280;9396;51.510;11.934;2023-04-28T01:20:23;100689.78;;;7.12;85.94
18533;BME280;9396;51.510;11.934;2023-04-28T01:22:49;100698.19;;;7.17;86.53
18533;BME280;9396;51.510;11.934;2023-04-28T01:25:17;100680.13;;;7.22;86.47
18533;BME280;9396;51.510;11.934;2023-04-28T01:27:44;100683.41;;;7.14;86.93
18533;BME280;9396;51.510;11.934;2023-04-28T01:30:11;100679.22;;;7.12;86.38
18533;BME280;9396;51.510;11.934;2023-04-28T01:32:37;100686.75;;;7.16;86.50
18533;BME280;9396;51.510;11.934;2023-04-28T01:35:05;100681.22;;;7.19;86.43
18533;BME280;9396;51.510;11.934;2023-04-28T01:37:31;100675.44;;;7.25;87.92
18533;BME280;9396;51.510;11.934;2023-04-28T01:39:58;100671.81;;;7.26;86.95
18533;BME280;9396;51.510;11.934;2023-04-28T01:42:26;100669.88;;;7.28;87.47
18533;BME280;9396;51.510;11.934;2023-04-28T01:44:53;100676.88;;;7.29;86.82
18533;BME280;9396;51.510;11.934;2023-04-28T01:47:19;100673.09;;;7.32;87.14
18533;BME280;9396;51.510;11.934;2023-04-28T01:49:46;100672.63;;;7.38;86.55
18533;BME280;9396;51.510;11.934;2023-04-28T01:52:14;100667.78;;;7.43;86.52
18533;BME280;9396;51.510;11.934;2023-04-28T01:54:41;100666.81;;;7.44;87.18
18533;BME280;9396;51.510;11.934;2023-04-28T01:57:07;100665.56;;;7.48;87.25
18533;BME280;9396;51.510;11.934;2023-04-28T01:59:35;100654.41;;;7.44;86.71
18533;BME280;9396;51.510;11.934;2023-04-28T02:02:02;100656.09;;;7.45;86.86
18533;BME280;9396;51.510;11.934;2023-04-28T02:04:28;100661.41;;;7.45;87.23
18533;BME280;9396;51.510;11.934;2023-04-28T02:06:55;100653.81;;;7.41;87.41
18533;BME280;9396;51.510;11.934;2023-04-28T02:09:22;100652.00;;;7.21;87.33
18533;BME280;9396;51.510;11.934;2023-04-28T02:11:48;100646.47;;;7.24;86.59
18533;BME280;9396;51.510;11.934;2023-04-28T02:14:15;100652.00;;;7.21;87.72
18533;BME280;9396;51.510;11.934;2023-04-28T02:16:43;100637.88;;;7.00;86.85
18533;BME280;9396;51.510;11.934;2023-04-28T02:19:10;100641.09;;;7.03;87.45
18533;BME280;9396;51.510;11.934;2023-04-28T02:21:36;100631.13;;;7.07;87.00
18533;BME280;9396;51.510;11.934;2023-04-28T02:24:03;100627.66;;;7.06;86.41
18533;BME280;9396;51.510;11.934;2023-04-28T02:26:32;100631.94;;;7.18;86.54
18533;BME280;9396;51.510;11.934;2023-04-28T02:28:58;100622.38;;;7.27;86.58
18533;BME280;9396;51.510;11.934;2023-04-28T02:31:25;100636.94;;;7.21;86.69
18533;BME280;9396;51.510;11.934;2023-04-28T02:33:53;100628.47;;;7.07;85.63
18533;BME280;9396;51.510;11.934;2023-04-28T02:36:20;100626.81;;;7.06;86.58
18533;BME280;9396;51.510;11.934;2023-04-28T02:38:47;100625.59;;;7.10;86.53
18533;BME280;9396;51.510;11.934;2023-04-28T02:41:13;100627.97;;;7.13;86.63
18533;BME280;9396;51.510;11.934;2023-04-28T02:43:40;100627.72;;;7.16;86.72
18533;BME280;9396;51.510;11.934;2023-04-28T02:46:07;100623.00;;;7.19;86.79
18533;BME280;9396;51.510;11.934;2023-04-28T02:48:33;100621.59;;;7.15;86.48
18533;BME280;9396;51.510;11.934;2023-04-28T02:51:03;100626.91;;;7.15;86.48
18533;BME280;9396;51.510;11.934;2023-04-28T02:53:29;100625.91;;;7.16;86.26
18533;BME280;9396;51.510;11.934;2023-04-28T02:55:56;100622.56;;;7.14;86.66
18533;BME280;9396;51.510;11.934;2023-04-28T02:58:23;100621.25;;;7.09;87.06
18533;BME280;9396;51.510;11.934;2023-04-28T03:00:51;100622.75;;;6.91;86.64
18533;BME280;9396;51.510;11.934;2023-04-28T03:03:17;100615.81;;;6.90;87.16
18533;BME280;9396;51.510;11.934;2023-04-28T03:05:44;100609.34;;;6.83;87.03
18533;BME280;9396;51.510;11.934;2023-04-28T03:08:12;100600.66;;;6.92;87.24
18533;BME280;9396;51.510;11.934;2023-04-28T03:10:39;100600.13;;;6.98;87.39
18533;BME280;9396;51.510;11.934;2023-04-28T03:13:05;100593.44;;;6.94;87.08
18533;BME280;9396;51.510;11.934;2023-04-28T03:15:32;100582.09;;;6.71;87.24
18533;BME280;9396;51.510;11.934;2023-04-28T03:17:59;100581.88;;;6.63;87.91
18533;BME280;9396;51.510;11.934;2023-04-28T03:20:25;100577.44;;;6.64;86.92
18533;BME280;9396;51.510;11.934;2023-04-28T03:22:52;100563.00;;;6.68;88.10
18533;BME280;9396;51.510;11.934;2023-04-28T03:25:20;100557.09;;;6.75;87.67
18533;BME280;9396;51.510;11.934;2023-04-28T03:27:47;100545.88;;;6.83;87.89
18533;BME280;9396;51.510;11.934;2023-04-28T03:30:13;100546.75;;;6.83;88.31
18533;BME280;9396;51.510;11.934;2023-04-28T03:32:40;100551.50;;;6.89;87.82
18533;BME280;9396;51.510;11.934;2023-04-28T03:35:07;100549.38;;;6.83;87.51
18533;BME280;9396;51.510;11.934;2023-04-28T03:37:34;100549.84;;;6.88;87.42
18533;BME280;9396;51.510;11.934;2023-04-28T03:40:01;100552.81;;;6.95;87.11
18533;BME280;9396;51.510;11.934;2023-04-28T03:42:29;100540.75;;;7.02;87.15
18533;BME280;9396;51.510;11.934;2023-04-28T03:44:55;100539.81;;;7.03;86.49
18533;BME280;9396;51.510;11.934;2023-04-28T03:47:22;100544.38;;;7.01;87.77
18533;BME280;9396;51.510;11.934;2023-04-28T03:49:49;100539.94;;;7.01;86.78
18533;BME280;9396;51.510;11.934;2023-04-28T03:52:16;100537.28;;;7.01;87.53
18533;BME280;9396;51.510;11.934;2023-04-28T03:54:43;100528.25;;;7.04;86.90
18533;BME280;9396;51.510;11.934;2023-04-28T03:57:10;100529.94;;;7.05;88.10
18533;BME280;9396;51.510;11.934;2023-04-28T03:59:38;100527.91;;;6.97;86.76
18533;BME280;9396;51.510;11.934;2023-04-28T04:02:04;100529.59;;;6.98;87.40
18533;BME280;9396;51.510;11.934;2023-04-28T04:04:31;100529.59;;;6.98;87.56
18533;BME280;9396;51.510;11.934;2023-04-28T04:06:58;100524.56;;;6.95;88.28
18533;BME280;9396;51.510;11.934;2023-04-28T04:09:25;100518.16;;;6.98;87.75
18533;BME280;9396;51.510;11.934;2023-04-28T04:11:51;100514.56;;;6.99;88.84
18533;BME280;9396;51.510;11.934;2023-04-28T04:14:18;100514.56;;;6.99;88.08
18533;BME280;9396;51.510;11.934;2023-04-28T04:16:46;100516.72;;;7.05;88.34
18533;BME280;9396;51.510;11.934;2023-04-28T04:19:13;100511.16;;;7.08;88.96
18533;BME280;9396;51.510;11.934;2023-04-28T04:21:40;100515.22;;;7.12;88.96
18533;BME280;9396;51.510;11.934;2023-04-28T04:24:07;100512.31;;;7.15;87.60
18533;BME280;9396;51.510;11.934;2023-04-28T04:26:33;100511.81;;;7.21;88.51
18533;BME280;9396;51.510;11.934;2023-04-28T04:29:00;100510.31;;;7.07;87.05
18533;BME280;9396;51.510;11.934;2023-04-28T04:31:27;100509.72;;;7.04;85.73
18533;BME280;9396;51.510;11.934;2023-04-28T04:33:55;100509.34;;;7.08;85.96
18533;BME280;9396;51.510;11.934;2023-04-28T04:36:22;100502.19;;;6.99;84.51
18533;BME280;9396;51.510;11.934;2023-04-28T04:38:48;100497.00;;;6.98;85.13
18533;BME280;9396;51.510;11.934;2023-04-28T04:41:15;100496.97;;;6.88;85.48
18533;BME280;9396;51.510;11.934;2023-04-28T04:43:42;100488.72;;;6.82;85.87
18533;BME280;9396;51.510;11.934;2023-04-28T04:46:08;100484.88;;;6.75;85.90
18533;BME280;9396;51.510;11.934;2023-04-28T04:48:35;100477.53;;;6.99;86.31
18533;BME280;9396;51.510;11.934;2023-04-28T04:51:03;100482.81;;;7.19;86.13
18533;BME280;9396;51.510;11.934;2023-04-28T04:53:30;100478.44;;;7.09;86.16
18533;BME280;9396;51.510;11.934;2023-04-28T04:55:57;100481.63;;;7.03;85.63
18533;BME280;9396;51.510;11.934;2023-04-28T04:58:23;100482.19;;;7.06;85.64
18533;BME280;9396;51.510;11.934;2023-04-28T05:00:50;100484.03;;;7.36;85.72
18533;BME280;9396;51.510;11.934;2023-04-28T05:03:17;100476.97;;;7.46;85.11
18533;BME280;9396;51.510;11.934;2023-04-28T05:05:43;100476.16;;;7.45;84.45
18533;BME280;9396;51.510;11.934;2023-04-28T05:08:12;100480.69;;;7.64;84.02
18533;BME280;9396;51.510;11.934;2023-04-28T05:10:38;100478.66;;;7.77;84.71
18533;BME280;9396;51.510;11.934;2023-04-28T05:13:05;100477.84;;;7.86;83.88
18533;BME280;9396;51.510;11.934;2023-04-28T05:15:32;100480.19;;;7.49;83.25
18533;BME280;9396;51.510;11.934;2023-04-28T05:17:59;100477.72;;;7.57;83.92
18533;BME280;9396;51.510;11.934;2023-04-28T05:20:30;100477.31;;;7.62;83.32
18533;BME280;9396;51.510;11.934;2023-04-28T05:22:57;100479.03;;;7.42;84.13
18533;BME280;9396;51.510;11.934;2023-04-28T05:25:25;100465.94;;;7.71;84.78
18533;BME280;9396;51.510;11.934;2023-04-28T05:27:52;100474.06;;;7.79;83.22
18533;BME280;9396;51.510;11.934;2023-04-28T05:30:18;100464.69;;;7.75;83.12
18533;BME280;9396;51.510;11.934;2023-04-28T05:32:45;100461.28;;;7.94;81.82
18533;BME280;9396;51.510;11.934;2023-04-28T05:35:12;100460.81;;;8.28;82.00
18533;BME280;9396;51.510;11.934;2023-04-28T05:37:39;100455.66;;;8.55;80.94
18533;BME280;9396;51.510;11.934;2023-04-28T05:40:08;100453.72;;;8.57;80.76
18533;BME280;9396;51.510;11.934;2023-04-28T05:42:36;100445.31;;;8.91;79.15
18533;BME280;9396;51.510;11.934;2023-04-28T05:45:05;100436.84;;;9.24;78.80
18533;BME280;9396;51.510;11.934;2023-04-28T05:47:31;100444.06;;;8.95;77.43
18533;BME280;9396;51.510;11.934;2023-04-28T05:49:58;100442.13;;;9.70;78.79
18533;BME280;9396;51.510;11.934;2023-04-28T05:52:25;100443.28;;;10.39;74.69
18533;BME280;9396;51.510;11.934;2023-04-28T05:54:51;100434.81;;;10.44;74.15
18533;BME280;9396;51.510;11.934;2023-04-28T05:57:18;100433.75;;;10.19;73.73
18533;BME280;9396;51.510;11.934;2023-04-28T05:59:46;100444.56;;;10.08;73.96
18533;BME280;9396;51.510;11.934;2023-04-28T06:02:13;100445.03;;;9.77;74.94
18533;BME280;9396;51.510;11.934;2023-04-28T06:04:41;100453.09;;;9.57;75.27
18533;BME280;9396;51.510;11.934;2023-04-28T06:07:08;100441.00;;;9.72;75.69
18533;BME280;9396;51.510;11.934;2023-04-28T06:09:35;100437.47;;;9.99;76.35
18533;BME280;9396;51.510;11.934;2023-04-28T06:12:02;100430.63;;;10.24;75.82
18533;BME280;9396;51.510;11.934;2023-04-28T06:14:29;100423.13;;;10.54;73.74
18533;BME280;9396;51.510;11.934;2023-04-28T06:16:58;100421.38;;;10.45;74.06
18533;BME280;9396;51.510;11.934;2023-04-28T06:19:24;100414.97;;;10.73;73.70
18533;BME280;9396;51.510;11.934;2023-04-28T06:21:51;100414.56;;;11.12;71.83
18533;BME280;9396;51.510;11.934;2023-04-28T06:24:18;100411.66;;;10.97;72.24
18533;BME280;9396;51.510;11.934;2023-04-28T06:26:45;100411.66;;;11.56;71.56
18533;BME280;9396;51.510;11.934;2023-04-28T06:29:12;100415.53;;;11.36;71.15
18533;BME280;9396;51.510;11.934;2023-04-28T06:31:38;100415.47;;;11.54;71.48
18533;BME280;9396;51.510;11.934;2023-04-28T06:34:06;100409.44;;;11.44;70.30
18533;BME280;9396;51.510;11.934;2023-04-28T06:36:33;100403.31;;;11.85;71.04
18533;BME280;9396;51.510;11.934;2023-04-28T06:39:00;100402.03;;;11.63;70.19
18533;BME280;9396;51.510;11.934;2023-04-28T06:41:27;100401.78;;;11.49;70.84
18533;BME280;9396;51.510;11.934;2023-04-28T06:43:54;100398.97;;;11.84;71.75
18533;BME280;9396;51.510;11.934;2023-04-28T06:46:21;100395.84;;;11.63;70.75
18533;BME280;9396;51.510;11.934;2023-04-28T06:48:47;100396.63;;;11.81;71.31
18533;BME280;9396;51.510;11.934;2023-04-28T06:51:16;100386.97;;;11.80;71.57
18533;BME280;9396;51.510;11.934;2023-04-28T06:53:42;100384.47;;;11.45;71.38
18533;BME280;9396;51.510;11.934;2023-04-28T06:56:09;100386.34;;;11.27;72.49
18533;BME280;9396;51.510;11.934;2023-04-28T06:58:36;100387.25;;;10.84;72.30
18533;BME280;9396;51.510;11.934;2023-04-28T07:01:03;100384.03;;;10.72;73.14
18533;BME280;9396;51.510;11.934;2023-04-28T07:03:30;100386.66;;;10.90;73.52
18533;BME280;9396;51.510;11.934;2023-04-28T07:05:56;100386.28;;;11.11;73.59
18533;BME280;9396;51.510;11.934;2023-04-28T07:08:25;100389.16;;;10.92;73.23
18533;BME280;9396;51.510;11.934;2023-04-28T07:10:51;100387.50;;;10.91;73.84
18533;BME280;9396;51.510;11.934;2023-04-28T07:13:18;100375.16;;;10.90;73.90
18533;BME280;9396;51.510;11.934;2023-04-28T07:15:45;100373.50;;;11.14;74.46
18533;BME280;9396;51.510;11.934;2023-04-28T07:18:11;100375.66;;;11.44;74.15
18533;BME280;9396;51.510;11.934;2023-04-28T07:20:38;100365.28;;;11.67;73.92
18533;BME280;9396;51.510;11.934;2023-04-28T07:23:05;100374.69;;;11.95;72.41
18533;BME280;9396;51.510;11.934;2023-04-28T07:25:33;100364.69;;;12.05;71.56
18533;BME280;9396;51.510;11.934;2023-04-28T07:28:02;100228.78;;;11.39;71.50
18533;BME280;9396;51.510;11.934;2023-04-28T07:30:29;100364.72;;;12.21;70.28
18533;BME280;9396;51.510;11.934;2023-04-28T07:32:56;100363.69;;;11.98;69.54
18533;BME280;9396;51.510;11.934;2023-04-28T07:35:23;100362.94;;;11.72;70.52
18533;BME280;9396;51.510;11.934;2023-04-28T07:37:50;100363.28;;;11.69;70.20
18533;BME280;9396;51.510;11.934;2023-04-28T07:40:17;100366.00;;;11.93;72.00
18533;BME280;9396;51.510;11.934;2023-04-28T07:42:45;100363.03;;;11.96;69.90
18533;BME280;9396;51.510;11.934;2023-04-28T07:45:13;100359.53;;;11.96;70.22
18533;BME280;9396;51.510;11.934;2023-04-28T07:47:40;100296.75;;;11.51;70.41
18533;BME280;9396;51.510;11.934;2023-04-28T07:50:07;100359.06;;;12.08;71.40
18533;BME280;9396;51.510;11.934;2023-04-28T07:52:34;100352.56;;;12.27;71.72
18533;BME280;9396;51.510;11.934;2023-04-28T07:55:01;100351.75;;;12.42;72.65
18533;BME280;9396;51.510;11.934;2023-04-28T07:57:29;100331.72;;;12.46;72.34
18533;BME280;9396;51.510;11.934;2023-04-28T07:59:57;100345.38;;;12.59;72.27
18533;BME280;9396;51.510;11.934;2023-04-28T08:02:23;100347.06;;;12.52;70.87
18533;BME280;9396;51.510;11.934;2023-04-28T08:04:51;100228.75;;;11.73;70.50
18533;BME280;9396;51.510;11.934;2023-04-28T08:07:18;100345.38;;;12.51;71.91
18533;BME280;9396;51.510;11.934;2023-04-28T08:09:45;100346.75;;;12.47;70.91
18533;BME280;9396;51.510;11.934;2023-04-28T08:12:12;100343.38;;;12.53;70.63
18533;BME280;9396;51.510;11.934;2023-04-28T08:14:39;100346.56;;;12.65;71.61
18533;BME280;9396;51.510;11.934;2023-04-28T08:17:07;100348.03;;;12.75;71.67
18533;BME280;9396;51.510;11.934;2023-04-28T08:19:34;100343.06;;;12.72;70.41
18533;BME280;9396;51.510;11.934;2023-04-28T08:22:00;100340.53;;;12.71;71.43
18533;BME280;9396;51.510;11.934;2023-04-28T08:24:30;100336.88;;;12.72;73.61
18533;BME280;9396;51.510;11.934;2023-04-28T08:26:59;100342.41;;;12.54;71.04
18533;BME280;9396;51.510;11.934;2023-04-28T08:29:27;100340.91;;;12.44;72.56
18533;BME280;9396;51.510;11.934;2023-04-28T08:31:54;100336.06;;;12.63;75.57
18533;BME280;9396;51.510;11.934;2023-04-28T08:34:22;100338.00;;;12.85;74.58
18533;BME280;9396;51.510;11.934;2023-04-28T08:36:48;100347.84;;;12.93;73.74
18533;BME280;9396;51.510;11.934;2023-04-28T08:39:16;100245.84;;;12.51;72.50
18533;BME280;9396;51.510;11.934;2023-04-28T08:41:44;100352.66;;;13.14;71.42
18533;BME280;9396;51.510;11.934;2023-04-28T08:44:10;100352.69;;;12.98;71.25
18533;BME280;9396;51.510;11.934;2023-04-28T08:46:39;100351.66;;;12.90;71.22
18533;BME280;9396;51.510;11.934;2023-04-28T08:49:13;100351.03;;;13.05;73.81
18533;BME280;9396;51.510;11.934;2023-04-28T08:51:44;100358.03;;;13.06;72.52
18533;BME280;9396;51.510;11.934;2023-04-28T08:54:13;100342.97;;;13.21;73.50
18533;BME280;9396;51.510;11.934;2023-04-28T08:56:41;100347.16;;;13.15;74.76
18533;BME280;9396;51.510;11.934;2023-04-28T08:59:10;100336.31;;;13.17;74.04
18533;BME280;9396;51.510;11.934;2023-04-28T09:01:37;100334.28;;;13.19;75.83
18533;BME280;9396;51.510;11.934;2023-04-28T09:04:04;100327.91;;;13.28;76.01
18533;BME280;9396;51.510;11.934;2023-04-28T09:06:32;100328.91;;;13.35;76.01
18533;BME280;9396;51.510;11.934;2023-04-28T09:09:23;100341.72;;;13.39;76.50
18533;BME280;9396;51.510;11.934;2023-04-28T09:11:54;100339.72;;;13.33;80.01
18533;BME280;9396;51.510;11.934;2023-04-28T09:14:22;100336.97;;;13.19;77.78
18533;BME280;9396;51.510;11.934;2023-04-28T09:16:49;100329.97;;;13.10;77.44
18533;BME280;9396;51.510;11.934;2023-04-28T09:19:17;100304.63;;;12.98;77.41
18533;BME280;9396;51.510;11.934;2023-04-28T09:21:47;100334.75;;;13.30;77.30
18533;BME280;9396;51.510;11.934;2023-04-28T09:24:32;100335.16;;;13.11;75.73
18533;BME280;9396;51.510;11.934;2023-04-28T09:27:00;100338.50;;;12.97;76.34
18533;BME280;9396;51.510;11.934;2023-04-28T09:29:28;100339.00;;;12.92;78.05
18533;BME280;9396;51.510;11.934;2023-04-28T09:32:11;100336.22;;;12.78;79.44
18533;BME280;9396;51.510;11.934;2023-04-28T09:34:41;100334.06;;;12.65;80.28
18533;BME280;9396;51.510;11.934;2023-04-28T09:37:14;100329.22;;;12.61;80.55
18533;BME280;9396;51.510;11.934;2023-04-28T09:39:43;100327.69;;;12.66;81.32
18533;BME280;9396;51.510;11.934;2023-04-28T09:42:10;100335.00;;;12.80;82.15
18533;BME280;9396;51.510;11.934;2023-04-28T09:44:36;100332.03;;;12.75;82.37
18533;BME280;9396;51.510;11.934;2023-04-28T09:47:18;100330.16;;;12.92;82.68
18533;BME280;9396;51.510;11.934;2023-04-28T09:49:53;100240.19;;;12.46;81.81
18533;BME280;9396;51.510;11.934;2023-04-28T09:52:21;100331.31;;;13.06;82.81
18533;BME280;9396;51.510;11.934;2023-04-28T09:54:51;100334.63;;;13.16;83.38
18533;BME280;9396;51.510;11.934;2023-04-28T09:57:18;100329.63;;;13.13;83.90
18533;BME280;9396;51.510;11.934;2023-04-28T09:59:46;100320.75;;;13.20;82.94
18533;BME280;9396;51.510;11.934;2023-04-28T10:02:14;100315.25;;;13.14;83.12
18533;BME280;9396;51.510;11.934;2023-04-28T10:04:41;100299.69;;;13.25;84.34
18533;BME280;9396;51.510;11.934;2023-04-28T10:07:10;100306.22;;;13.23;85.29
18533;BME280;9396;51.510;11.934;2023-04-28T10:09:37;100311.34;;;13.32;85.75
18533;BME280;9396;51.510;11.934;2023-04-28T10:12:09;100312.16;;;13.41;86.30
18533;BME280;9396;51.510;11.934;2023-04-28T10:14:37;100317.00;;;13.37;88.20
18533;BME280;9396;51.510;11.934;2023-04-28T10:17:04;100318.69;;;13.38;88.32
18533;BME280;9396;51.510;11.934;2023-04-28T10:19:31;100322.91;;;13.25;88.89
18533;BME280;9396;51.510;11.934;2023-04-28T10:22:13;100314.75;;;13.18;89.34
18533;BME280;9396;51.510;11.934;2023-04-28T10:24:59;100310.13;;;13.04;90.21
18533;BME280;9396;51.510;11.934;2023-04-28T10:27:33;100302.94;;;12.97;90.19
18533;BME280;9396;51.510;11.934;2023-04-28T10:30:10;100303.59;;;13.07;90.44
18533;BME280;9396;51.510;11.934;2023-04-28T10:32:37;100302.34;;;12.70;89.86
18533;BME280;9396;51.510;11.934;2023-04-28T10:35:42;100301.69;;;12.68;93.37
18533;BME280;9396;51.510;11.934;2023-04-28T10:38:12;100301.69;;;12.60;93.04
18533;BME280;9396;51.510;11.934;2023-04-28T10:40:39;100255.25;;;12.07;94.03
18533;BME280;9396;51.510;11.934;2023-04-28T10:43:09;100285.56;;;12.30;94.91
18533;BME280;9396;51.510;11.934;2023-04-28T10:46:03;100285.72;;;12.36;95.46
18533;BME280;9396;51.510;11.934;2023-04-28T10:48:53;100293.03;;;12.50;95.45
18533;BME280;9396;51.510;11.934;2023-04-28T10:51:30;100290.69;;;12.55;96.15
18533;BME280;9396;51.510;11.934;2023-04-28T10:54:15;100292.84;;;12.68;95.81
18533;BME280;9396;51.510;11.934;2023-04-28T10:57:19;100284.00;;;12.59;96.14
18533;BME280;9396;51.510;11.934;2023-04-28T10:59:49;100283.66;;;12.62;97.36
18533;BME280;9396;51.510;11.934;2023-04-28T11:02:38;100279.16;;;12.63;96.69
18533;BME280;9396;51.510;11.934;2023-04-28T11:05:16;100274.97;;;12.76;97.49
18533;BME280;9396;51.510;11.934;2023-04-28T11:11:21;100271.13;;;12.71;97.14
18533;BME280;9396;51.510;11.934;2023-04-28T11:13:50;100261.59;;;12.76;98.15
18533;BME280;9396;51.510;11.934;2023-04-28T11:16:20;100261.28;;;12.71;99.44
18533;BME280;9396;51.510;11.934;2023-04-28T11:18:56;100257.72;;;12.40;98.14
18533;BME280;9396;51.510;11.934;2023-04-28T11:21:24;100263.34;;;12.53;98.38
18533;BME280;9396;51.510;11.934;2023-04-28T11:23:52;100254.84;;;12.58;99.01
18533;BME280;9396;51.510;11.934;2023-04-28T11:26:19;100255.50;;;12.52;98.98
18533;BME280;9396;51.510;11.934;2023-04-28T11:28:49;100260.34;;;12.48;98.04
18533;BME280;9396;51.510;11.934;2023-04-28T11:31:16;100250.00;;;12.61;97.70
18533;BME280;9396;51.510;11.934;2023-04-28T11:33:48;100251.16;;;12.67;98.95
18533;BME280;9396;51.510;11.934;2023-04-28T11:36:30;100251.31;;;12.65;99.18
18533;BME280;9396;51.510;11.934;2023-04-28T11:39:00;100249.19;;;12.53;97.94
18533;BME280;9396;51.510;11.934;2023-04-28T11:41:29;100246.00;;;12.65;98.72
18533;BME280;9396;51.510;11.934;2023-04-28T11:43:56;100237.94;;;12.73;98.89
18533;BME280;9396;51.510;11.934;2023-04-28T11:46:24;100243.94;;;12.75;99.19
18533;BME280;9396;51.510;11.934;2023-04-28T11:49:02;100244.38;;;12.95;99.28
18533;BME280;9396;51.510;11.934;2023-04-28T11:51:34;100237.72;;;12.91;98.43
18533;BME280;9396;51.510;11.934;2023-04-28T11:54:02;100240.03;;;12.94;97.17
18533;BME280;9396;51.510;11.934;2023-04-28T11:56:29;100239.34;;;13.00;97.04
18533;BME280;9396;51.510;11.934;2023-04-28T11:59:00;100234.31;;;13.13;98.29
18533;BME280;9396;51.510;11.934;2023-04-28T12:01:28;100230.34;;;13.01;99.43
18533;BME280;9396;51.510;11.934;2023-04-28T12:03:55;100234.56;;;12.87;96.83
18533;BME280;9396;51.510;11.934;2023-04-28T12:06:23;100233.88;;;12.93;98.05
18533;BME280;9396;51.510;11.934;2023-04-28T12:08:50;100229.19;;;13.04;99.12
18533;BME280;9396;51.510;11.934;2023-04-28T12:11:17;100226.13;;;13.15;99.48
18533;BME280;9396;51.510;11.934;2023-04-28T12:14:02;100223.75;;;13.28;98.35
18533;BME280;9396;51.510;11.934;2023-04-28T12:16:36;100223.28;;;13.16;97.25
18533;BME280;9396;51.510;11.934;2023-04-28T12:19:04;100222.06;;;12.80;96.09
18533;BME280;9396;51.510;11.934;2023-04-28T12:21:36;100136.03;;;12.31;96.10
18533;BME280;9396;51.510;11.934;2023-04-28T12:24:15;100225.75;;;12.79;97.62
18533;BME280;9396;51.510;11.934;2023-04-28T12:26:42;100217.75;;;12.79;96.98
18533;BME280;9396;51.510;11.934;2023-04-28T12:29:09;100217.75;;;12.79;98.06
18533;BME280;9396;51.510;11.934;2023-04-28T12:31:48;100215.19;;;12.93;99.72
18533;BME280;9396;51.510;11.934;2023-04-28T12:34:17;100212.81;;;13.07;99.88
18533;BME280;9396;51.510;11.934;2023-04-28T12:36:45;100205.44;;;13.17;100.00
18533;BME280;9396;51.510;11.934;2023-04-28T12:39:13;100200.94;;;13.17;100.00
18533;BME280;9396;51.510;11.934;2023-04-28T12:41:40;100204.63;;;13.00;99.35
18533;BME280;9396;51.510;11.934;2023-04-28T12:44:08;100194.09;;;13.15;99.09
18533;BME280;9396;51.510;11.934;2023-04-28T12:46:35;100194.56;;;13.18;100.00
18533;BME280;9396;51.510;11.934;2023-04-28T12:49:02;100201.53;;;13.27;100.00
18533;BME280;9396;51.510;11.934;2023-04-28T12:51:29;100195.94;;;13.37;100.00
18533;BME280;9396;51.510;11.934;2023-04-28T12:53:58;100198.28;;;13.40;99.96
18533;BME280;9396;51.510;11.934;2023-04-28T12:56:24;100188.47;;;13.32;99.77
18533;BME280;9396;51.510;11.934;2023-04-28T12:58:51;100196.13;;;13.35;100.00
18533;BME280;9396;51.510;11.934;2023-04-28T13:01:18;100186.38;;;13.42;100.00
18533;BME280;9396;51.510;11.934;2023-04-28T13:03:45;100184.75;;;13.41;98.45
18533;BME280;9396;51.510;11.934;2023-04-28T13:06:12;100177.97;;;13.53;98.25